McCarr, Kentucky
Current Conditions -  °F | °C
As of 2:55 AM on Wednesday 26 Nov 2014 (Local Time) from KPBX Reporting Station
Clear Clear  
Wind Chill: 34°   Ceiling: Unl
Heat Index: 39°   Visibility: 10mi
Dew Point: 29°   Wind: 7mph
Humidity: 66%   Direction: 340°NNW
Pressure: 30.04"   Gusts: NA
Location:  37.61°N, 82.17°W
Report Text: KPBX 260755Z AUTO 34006KT 10SM CLR 04/M02 A3004 RMK AO2 T00401019
Loading
Personal Weather Stations






























Interactive Weather Map New forecast layout! Learn more

10-Day Weather Forecast

Advertisements
Track Severe Weather on mobile